Time;durP1;ratioP1;P1;durP2;ratioP2;P2;SDS_P1;SDS_P2;PMS_P1;PMS_P2;Temp;Humidity;BMP_temperature;BMP_pressure;BME280_temperature;BME280_humidity;BME280_pressure;Samples;Min_cycle;Max_cycle;Signal;HPM_P1;HPM_P2
2021/12/17 05:25:55;;;;;;;4.38;4.07;;;3.00;99.90;;;;;;5760954;23;20225;-71
2021/12/17 05:28:21;;;;;;;3.88;3.63;;;3.10;99.90;;;;;;5013689;28;20297;-72
2021/12/17 05:30:49;;;;;;;5.32;4.53;;;3.10;99.90;;;;;;5013857;28;20284;-72
2021/12/17 05:33:19;;;;;;;4.10;3.80;;;3.10;99.90;;;;;;5013521;28;20650;-72
2021/12/17 05:35:46;;;;;;;3.17;2.88;;;3.10;99.90;;;;;;5013855;28;20304;-72
2021/12/17 05:38:15;;;;;;;3.53;3.22;;;3.10;99.90;;;;;;5013860;28;20289;-70
2021/12/17 05:40:43;;;;;;;3.10;2.90;;;3.10;99.90;;;;;;5013409;28;20736;-69
2021/12/17 05:43:12;;;;;;;3.38;3.17;;;3.10;99.90;;;;;;5013738;28;20293;-69
2021/12/17 05:45:50;;;;;;;3.35;3.10;;;3.10;99.90;;;;;;5013584;28;20257;-69
2021/12/17 05:48:20;;;;;;;3.45;3.15;;;3.10;99.90;;;;;;5013819;28;20191;-69
2021/12/17 05:50:48;;;;;;;3.10;2.90;;;3.00;99.90;;;;;;5013604;28;20288;-69
2021/12/17 05:53:16;;;;;;;3.55;3.35;;;3.00;99.90;;;;;;5013315;28;20550;-69
2021/12/17 05:55:42;;;;;;;3.17;2.97;;;3.00;99.90;;;;;;5014050;28;20312;-68
2021/12/17 05:58:11;;;;;;;3.33;3.13;;;3.00;99.90;;;;;;5013319;28;20201;-66
2021/12/17 06:00:40;;;;;;;4.00;3.70;;;3.10;99.90;;;;;;5013282;28;20760;-66
2021/12/17 06:03:07;;;;;;;3.47;3.22;;;3.10;99.90;;;;;;5017363;28;20202;-66
2021/12/17 06:05:35;;;;;;;3.45;3.25;;;3.00;99.90;;;;;;5016916;28;20686;-67
2021/12/17 06:08:02;;;;;;;3.55;3.33;;;3.00;99.90;;;;;;5017329;28;20292;-66
2021/12/17 06:10:28;;;;;;;3.45;3.15;;;3.00;99.90;;;;;;5017253;28;20297;-68
2021/12/17 06:12:55;;;;;;;3.63;3.42;;;3.10;99.90;;;;;;5016899;28;20685;-67
2021/12/17 06:15:25;;;;;;;3.65;3.35;;;3.10;99.90;;;;;;5017113;28;20202;-67
2021/12/17 06:17:52;;;;;;;3.70;3.40;;;3.10;99.90;;;;;;5016813;28;20675;-67
2021/12/17 06:20:21;;;;;;;3.55;3.30;;;3.10;99.90;;;;;;5016746;28;20665;-67
2021/12/17 06:22:48;;;;;;;3.53;3.25;;;3.10;99.90;;;;;;5017041;28;20294;-67
2021/12/17 06:25:16;;;;;;;6.00;3.72;;;3.20;99.90;;;;;;5016554;28;20620;-67
2021/12/17 06:27:43;;;;;;;4.10;3.80;;;3.20;99.90;;;;;;5016610;28;20210;-67
2021/12/17 06:30:13;;;;;;;3.58;3.38;;;3.20;99.90;;;;;;5016579;28;20657;-67
2021/12/17 06:32:41;;;;;;;3.55;3.25;;;3.20;99.90;;;;;;5016393;28;20654;-67
2021/12/17 06:35:09;;;;;;;3.47;3.22;;;3.20;99.90;;;;;;5016542;28;20249;-66
2021/12/17 06:37:38;;;;;;;3.85;3.55;;;3.20;99.90;;;;;;5016701;28;20204;-66
2021/12/17 06:40:06;;;;;;;3.35;3.15;;;3.20;99.90;;;;;;5017314;28;20257;-68
2021/12/17 06:42:34;;;;;;;3.88;3.58;;;3.20;99.90;;;;;;5021630;28;20209;-68
2021/12/17 06:45:05;;;;;;;3.40;3.20;;;3.20;99.90;;;;;;5021126;28;20230;-68
2021/12/17 06:47:35;;;;;;;3.60;3.25;;;3.20;99.90;;;;;;5020831;28;20229;-65
2021/12/17 06:56:01;;;;;;;4.75;4.35;;;3.20;99.90;;;;;;5020899;28;20217;-66
2021/12/17 06:58:48;;;;;;;3.95;3.65;;;3.10;99.90;;;;;;5020600;28;20361;-66
2021/12/17 07:01:21;;;;;;;4.25;3.95;;;3.10;99.90;;;;;;5020525;28;20693;-67
2021/12/17 07:06:56;;;;;;;4.28;3.97;;;3.10;99.90;;;;;;5016290;28;20236;-66
2021/12/17 07:09:58;;;;;;;3.42;3.22;;;3.10;99.90;;;;;;5016246;28;20296;-66
2021/12/17 07:18:05;;;;;;;3.85;3.38;;;3.20;99.90;;;;;;5015970;28;20224;-66
2021/12/17 07:23:22;;;;;;;3.67;3.38;;;3.20;99.90;;;;;;4998938;28;20198;-66
2021/12/17 07:29:31;;;;;;;4.03;3.80;;;3.30;99.90;;;;;;5015415;28;20691;-66
2021/12/17 07:34:42;;;;;;;4.85;3.90;;;3.20;99.90;;;;;;5015612;28;20186;-66
2021/12/17 07:39:55;;;;;;;3.58;3.38;;;3.20;99.90;;;;;;5015647;28;20248;-65
2021/12/17 07:42:22;;;;;;;3.95;3.55;;;3.30;99.90;;;;;;5015234;28;20720;-66
2021/12/17 07:44:49;;;;;;;3.75;3.45;;;3.30;99.90;;;;;;5015695;28;20225;-66
2021/12/17 07:47:16;;;;;;;4.53;4.03;;;3.30;99.90;;;;;;5015415;28;20236;-66
2021/12/17 07:49:43;;;;;;;3.85;3.53;;;3.30;99.90;;;;;;5015774;28;20233;-66
2021/12/17 07:52:10;;;;;;;3.78;3.47;;;3.30;99.90;;;;;;5015512;28;20289;-66
2021/12/17 07:54:37;;;;;;;3.72;3.53;;;3.30;99.90;;;;;;5015425;28;20309;-66
2021/12/17 07:57:06;;;;;;;2.97;2.78;;;3.30;99.90;;;;;;5014982;28;20768;-67
2021/12/17 07:59:33;;;;;;;3.33;3.13;;;3.40;99.90;;;;;;5015199;28;20294;-66
2021/12/17 08:02:00;;;;;;;3.65;3.45;;;3.40;99.90;;;;;;5015496;28;20293;-66
2021/12/17 08:04:27;;;;;;;3.47;3.28;;;3.40;99.90;;;;;;5015128;28;20298;-66
2021/12/17 08:06:53;;;;;;;4.32;3.92;;;3.40;99.90;;;;;;5014967;28;20313;-66
2021/12/17 08:09:21;;;;;;;3.35;3.15;;;3.30;99.90;;;;;;5015067;28;20198;-66
2021/12/17 08:11:54;;;;;;;3.78;3.45;;;3.30;99.90;;;;;;5015009;28;20293;-66
2021/12/17 08:14:23;;;;;;;3.88;3.58;;;3.40;99.90;;;;;;5015596;28;20182;-66
2021/12/17 08:16:57;;;;;;;2.97;2.78;;;3.40;99.90;;;;;;5014896;28;20229;-67
2021/12/17 08:24:57;;;;;;;3.20;3.00;;;3.50;99.90;;;;;;5014104;28;20615;-66
2021/12/17 08:27:44;;;;;;;4.38;4.05;;;3.50;99.90;;;;;;5014577;28;20230;-66
2021/12/17 08:30:23;;;;;;;3.58;3.33;;;3.40;99.90;;;;;;5014762;28;20187;-67
2021/12/17 08:32:51;;;;;;;3.45;3.25;;;3.40;99.90;;;;;;5014716;28;20197;-67
2021/12/17 08:35:19;;;;;;;2.78;2.67;;;3.40;99.90;;;;;;5014313;28;20210;-67
2021/12/17 08:37:46;;;;;;;3.45;3.25;;;3.40;99.90;;;;;;5014620;28;20362;-67
2021/12/17 08:40:13;;;;;;;3.10;2.90;;;3.30;99.90;;;;;;5014536;28;20217;-67
2021/12/17 08:42:40;;;;;;;2.92;2.78;;;3.40;99.90;;;;;;5014481;28;20328;-66
2021/12/17 08:45:08;;;;;;;3.88;3.58;;;3.40;99.90;;;;;;5014444;28;20285;-66
2021/12/17 08:47:37;;;;;;;2.83;2.63;;;3.40;99.90;;;;;;5014360;28;20305;-66
2021/12/17 08:50:06;;;;;;;2.85;2.75;;;3.50;99.90;;;;;;5014242;28;20572;-67
2021/12/17 08:52:33;;;;;;;3.75;3.53;;;3.50;99.90;;;;;;5014313;28;20639;-67
2021/12/17 08:55:02;;;;;;;3.25;2.95;;;3.50;99.90;;;;;;5014082;28;20288;-67
2021/12/17 08:57:29;;;;;;;2.80;2.70;;;3.50;99.90;;;;;;5013975;28;20769;-67
2021/12/17 08:59:57;;;;;;;3.72;3.53;;;3.50;99.90;;;;;;5014212;28;20206;-67
2021/12/17 09:02:24;;;;;;;3.28;2.97;;;3.50;99.90;;;;;;5014352;28;20202;-69
2021/12/17 09:04:53;;;;;;;3.20;2.90;;;3.50;99.90;;;;;;5014226;28;20198;-70
2021/12/17 09:07:20;;;;;;;2.88;2.67;;;3.60;99.90;;;;;;5014178;28;20371;-70
2021/12/17 09:09:48;;;;;;;3.60;3.30;;;3.60;99.90;;;;;;5014310;28;20206;-70
2021/12/17 09:12:15;;;;;;;3.97;3.67;;;3.60;99.90;;;;;;5014182;28;20202;-69
2021/12/17 09:14:42;;;;;;;3.30;3.10;;;3.60;99.90;;;;;;5013884;28;20744;-69
2021/12/17 09:17:08;;;;;;;3.33;3.13;;;3.60;99.90;;;;;;5014026;28;20329;-70
2021/12/17 09:19:36;;;;;;;3.83;3.58;;;3.60;99.90;;;;;;5013606;28;20202;-70
2021/12/17 09:22:04;;;;;;;3.65;3.42;;;3.70;99.90;;;;;;5013963;28;20296;-69
2021/12/17 09:24:31;;;;;;;3.63;3.42;;;3.70;99.90;;;;;;5013889;28;20241;-70
2021/12/17 09:26:58;;;;;;;3.60;3.40;;;3.70;99.90;;;;;;5013508;28;20653;-70
2021/12/17 09:29:27;;;;;;;3.88;3.58;;;3.70;99.90;;;;;;5013903;28;20712;-70
2021/12/17 09:31:54;;;;;;;3.92;3.38;;;3.70;99.90;;;;;;5013572;28;20206;-69
2021/12/17 09:34:22;;;;;;;4.15;3.85;;;3.80;99.90;;;;;;5013639;28;20744;-69
2021/12/17 09:36:49;;;;;;;4.65;4.25;;;3.90;99.90;;;;;;5015318;28;20738;-69
2021/12/17 09:39:18;;;;;;;4.68;4.28;;;3.90;99.90;;;;;;5017974;28;20285;-69
2021/12/17 09:41:50;;;;;;;4.53;4.13;;;4.00;99.90;;;;;;5017953;28;20201;-69
2021/12/17 09:44:18;;;;;;;4.63;4.25;;;4.00;99.90;;;;;;5018043;28;20186;-69
2021/12/17 09:46:47;;;;;;;4.95;4.55;;;3.90;99.90;;;;;;5017986;28;20226;-69
2021/12/17 09:49:16;;;;;;;4.55;4.15;;;4.00;99.90;;;;;;5018521;28;20565;-69
2021/12/17 09:51:43;;;;;;;4.07;3.78;;;4.00;99.90;;;;;;5018520;28;20297;-69
2021/12/17 09:54:11;;;;;;;4.22;3.83;;;4.10;99.90;;;;;;5018410;28;20289;-69
2021/12/17 09:56:40;;;;;;;4.00;3.70;;;4.10;99.90;;;;;;5018146;28;20309;-69
2021/12/17 09:59:07;;;;;;;3.88;3.63;;;4.10;99.90;;;;;;5018472;28;20292;-69
2021/12/17 10:01:37;;;;;;;3.92;3.55;;;4.10;99.90;;;;;;5017270;28;20732;-69
2021/12/17 10:04:16;;;;;;;3.83;3.30;;;4.10;99.90;;;;;;5017513;28;20626;-69
2021/12/17 10:06:43;;;;;;;3.03;2.90;;;4.20;99.90;;;;;;5017289;28;20608;-69
2021/12/17 10:09:10;;;;;;;3.17;2.97;;;4.30;99.90;;;;;;5017410;28;20280;-69
2021/12/17 10:11:37;;;;;;;3.05;2.85;;;4.30;99.90;;;;;;5017304;28;20625;-70
2021/12/17 10:14:18;;;;;;;4.25;3.95;;;4.40;99.90;;;;;;5018024;28;20284;-70
2021/12/17 10:16:46;;;;;;;2.90;2.70;;;4.40;99.90;;;;;;5017488;28;20320;-70
2021/12/17 10:19:13;;;;;;;2.85;2.75;;;4.30;99.90;;;;;;5017297;28;20652;-70
2021/12/17 10:21:46;;;;;;;3.13;2.92;;;4.30;99.90;;;;;;5017240;28;20293;-70
2021/12/17 10:24:23;;;;;;;3.17;2.97;;;4.30;99.90;;;;;;5017039;28;20228;-70
2021/12/17 10:26:50;;;;;;;2.42;2.33;;;4.30;99.90;;;;;;5017353;28;21323;-70
2021/12/17 10:29:22;;;;;;;2.63;2.53;;;4.30;99.90;;;;;;5016935;28;20727;-70
2021/12/17 10:31:58;;;;;;;2.60;2.50;;;4.30;99.90;;;;;;5017125;28;20186;-70
2021/12/17 10:34:25;;;;;;;2.30;2.25;;;4.30;99.90;;;;;;5016857;28;20641;-70
2021/12/17 10:36:52;;;;;;;2.38;2.25;;;4.30;99.90;;;;;;5016624;28;20329;-70
2021/12/17 10:39:24;;;;;;;3.00;2.80;;;4.30;99.90;;;;;;5016726;28;20745;-70
2021/12/17 10:41:52;;;;;;;3.60;3.30;;;4.30;99.90;;;;;;5016865;28;20202;-70
2021/12/17 10:44:20;;;;;;;3.22;3.03;;;4.20;99.90;;;;;;5016814;28;20213;-70
2021/12/17 10:47:09;;;;;;;3.15;2.95;;;4.10;99.90;;;;;;5016742;28;20317;-70
2021/12/17 10:49:36;;;;;;;2.72;2.63;;;4.10;99.90;;;;;;5017224;28;20187;-69
2021/12/17 10:52:07;;;;;;;2.88;2.67;;;4.10;99.90;;;;;;5017050;28;20297;-69
2021/12/17 10:54:34;;;;;;;2.25;2.15;;;4.10;99.90;;;;;;5017330;28;20281;-70
2021/12/17 10:57:01;;;;;;;2.30;2.20;;;4.20;99.90;;;;;;5017139;28;20229;-69
2021/12/17 10:59:31;;;;;;;2.30;2.20;;;4.30;99.90;;;;;;5016629;28;20240;-69
2021/12/17 11:02:05;;;;;;;2.30;2.20;;;4.30;99.90;;;;;;5016921;28;20189;-70
2021/12/17 11:04:34;;;;;;;2.30;2.20;;;4.40;99.90;;;;;;5017130;28;20185;-73
2021/12/17 11:07:03;;;;;;;2.08;2.00;;;4.40;99.90;;;;;;5016616;28;20317;-73
2021/12/17 11:09:48;;;;;;;2.10;2.00;;;4.50;99.90;;;;;;5016696;28;20293;-73
2021/12/17 11:12:34;;;;;;;2.42;2.33;;;4.50;99.90;;;;;;5017503;28;20607;-73
2021/12/17 11:15:18;;;;;;;2.33;2.22;;;4.70;99.90;;;;;;5017118;28;20273;-73
2021/12/17 11:17:48;;;;;;;2.72;2.60;;;4.70;99.90;;;;;;5016739;28;20189;-73
2021/12/17 11:20:18;;;;;;;2.63;2.42;;;4.80;99.90;;;;;;5017149;28;20293;-72
2021/12/17 11:22:47;;;;;;;2.42;2.33;;;4.80;99.90;;;;;;5016783;28;20222;-73
2021/12/17 11:25:15;;;;;;;2.65;2.55;;;4.90;99.90;;;;;;5016072;28;20310;-75
2021/12/17 11:27:42;;;;;;;2.80;2.60;;;4.90;99.90;;;;;;5015610;28;20253;-74
2021/12/17 11:30:12;;;;;;;2.80;2.67;;;5.00;99.90;;;;;;5016131;28;20620;-75
2021/12/17 11:32:39;;;;;;;2.65;2.55;;;5.00;99.90;;;;;;5015964;28;20285;-74
2021/12/17 11:35:08;;;;;;;2.80;2.70;;;5.10;99.90;;;;;;5015954;28;20297;-74
2021/12/17 11:37:36;;;;;;;2.40;2.28;;;5.20;99.90;;;;;;5015950;28;20280;-71
2021/12/17 11:40:08;;;;;;;2.70;2.60;;;5.20;99.90;;;;;;5015815;28;20313;-72
2021/12/17 11:43:02;;;;;;;2.65;2.55;;;5.20;99.90;;;;;;5015977;28;20196;-72
2021/12/17 11:45:30;;;;;;;2.30;2.17;;;5.30;99.90;;;;;;5016117;28;20254;-72
2021/12/17 11:48:13;;;;;;;3.40;3.20;;;5.30;99.90;;;;;;5015799;28;20719;-72
2021/12/17 11:50:42;;;;;;;2.72;2.55;;;5.30;99.90;;;;;;5016054;28;20265;-71
2021/12/17 11:53:20;;;;;;;2.50;2.40;;;5.40;99.90;;;;;;5015729;28;20288;-72
2021/12/17 11:55:47;;;;;;;2.55;2.45;;;5.50;99.90;;;;;;5037871;23;20225;-68
2021/12/17 11:58:16;;;;;;;2.75;2.55;;;5.50;99.90;;;;;;5015148;28;20207;-68
2021/12/17 12:00:51;;;;;;;2.40;2.30;;;5.50;99.90;;;;;;5014851;28;20244;-67
2021/12/17 12:03:20;;;;;;;2.50;2.30;;;5.50;99.90;;;;;;5016456;28;20632;-66
2021/12/17 12:05:50;;;;;;;2.63;2.53;;;5.50;99.90;;;;;;5015908;28;20229;-67
2021/12/17 12:08:30;;;;;;;2.40;2.30;;;5.50;99.90;;;;;;5015297;28;20300;-67
2021/12/17 12:11:08;;;;;;;2.30;2.20;;;5.60;99.90;;;;;;5015821;28;20185;-68
2021/12/17 12:13:36;;;;;;;2.58;2.47;;;5.60;99.90;;;;;;5015714;28;20213;-67
2021/12/17 12:16:05;;;;;;;2.10;2.00;;;5.60;99.90;;;;;;5015391;28;20309;-67
2021/12/17 12:18:57;;;;;;;1.70;1.70;;;5.60;99.90;;;;;;5014953;28;20719;-67
2021/12/17 12:21:32;;;;;;;1.83;1.83;;;5.60;99.90;;;;;;4996159;28;20206;-67
2021/12/17 12:24:12;;;;;;;1.70;1.70;;;5.60;99.90;;;;;;5015891;28;20210;-67
2021/12/17 12:26:43;;;;;;;1.60;1.58;;;5.60;99.90;;;;;;5016530;28;20305;-67
2021/12/17 12:29:13;;;;;;;1.95;1.95;;;5.60;99.90;;;;;;5016470;28;20621;-66
2021/12/17 12:32:17;;;;;;;1.58;1.58;;;5.60;99.90;;;;;;5017898;28;20197;-68
2021/12/17 12:34:44;;;;;;;1.73;1.65;;;5.60;99.90;;;;;;5017079;28;20193;-66
2021/12/17 12:37:25;;;;;;;2.67;2.47;;;5.60;99.90;;;;;;5014670;28;20289;-65
2021/12/17 12:40:21;;;;;;;3.28;2.97;;;5.50;99.90;;;;;;5014952;28;20214;-66
2021/12/17 12:42:56;;;;;;;3.00;2.80;;;5.50;99.90;;;;;;5015167;28;20194;-66
2021/12/17 12:45:24;;;;;;;3.10;2.80;;;5.50;99.90;;;;;;5014483;28;20225;-66
2021/12/17 12:47:58;;;;;;;2.80;2.60;;;5.50;99.90;;;;;;5014592;28;20312;-67
2021/12/17 12:50:28;;;;;;;2.65;2.45;;;5.50;99.90;;;;;;5014665;28;20202;-68
2021/12/17 12:52:59;;;;;;;2.60;2.40;;;5.50;99.90;;;;;;5014181;28;20202;-67
2021/12/17 12:55:30;;;;;;;2.63;2.47;;;5.40;99.90;;;;;;5013878;28;20321;-67
2021/12/17 12:58:08;;;;;;;2.67;2.47;;;5.40;99.90;;;;;;5014067;28;20285;-66
2021/12/17 13:00:46;;;;;;;1.92;1.83;;;5.30;99.90;;;;;;5013811;28;20641;-66
2021/12/17 13:03:14;;;;;;;2.00;1.90;;;5.30;99.90;;;;;;5013847;28;20622;-66
2021/12/17 13:05:43;;;;;;;2.00;1.90;;;5.20;99.90;;;;;;5014085;28;20313;-67
2021/12/17 13:08:14;;;;;;;1.70;1.70;;;5.10;99.90;;;;;;5013816;28;20586;-67
2021/12/17 13:10:44;;;;;;;2.00;1.90;;;5.10;99.90;;;;;;5013933;28;20268;-67
2021/12/17 13:13:18;;;;;;;1.90;1.80;;;5.00;99.90;;;;;;5013836;28;20186;-68
2021/12/17 13:15:50;;;;;;;1.65;1.65;;;4.90;99.90;;;;;;5014005;28;20225;-68
2021/12/17 13:21:20;;;;;;;1.90;1.80;;;4.80;99.90;;;;;;5013884;28;20191;-67
2021/12/17 13:23:52;;;;;;;1.88;1.80;;;4.70;99.90;;;;;;5013779;28;20657;-66
2021/12/17 13:26:21;;;;;;;2.00;1.90;;;4.60;99.90;;;;;;5013752;28;20701;-66
2021/12/17 13:28:52;;;;;;;1.60;1.55;;;4.50;99.90;;;;;;5014085;28;20312;-66
2021/12/17 13:31:48;;;;;;;1.50;1.50;;;4.50;99.90;;;;;;5014135;28;20285;-66
2021/12/17 13:34:19;;;;;;;1.67;1.67;;;4.40;99.90;;;;;;4969378;28;20301;-66
2021/12/17 13:37:00;;;;;;;1.90;1.90;;;4.40;99.90;;;;;;5013961;28;20309;-67
2021/12/17 13:39:31;;;;;;;1.98;1.88;;;4.40;99.90;;;;;;5013966;28;20265;-67
2021/12/17 13:41:58;;;;;;;1.75;1.67;;;4.30;99.90;;;;;;5014011;28;20276;-67
2021/12/17 13:44:33;;;;;;;1.70;1.60;;;4.20;99.90;;;;;;5013836;28;20716;-67
2021/12/17 13:47:25;;;;;;;1.65;1.55;;;4.20;99.90;;;;;;5014303;28;20236;-69
2021/12/17 13:50:05;;;;;;;1.92;1.83;;;4.10;99.90;;;;;;5014100;28;20645;-68
2021/12/17 13:52:34;;;;;;;1.70;1.70;;;4.10;99.90;;;;;;5014485;28;20193;-68
2021/12/17 13:55:06;;;;;;;1.83;1.83;;;4.00;99.90;;;;;;5013811;28;20317;-68
2021/12/17 13:57:33;;;;;;;1.55;1.55;;;4.00;99.90;;;;;;5013623;28;20639;-68
2021/12/17 14:00:20;;;;;;;1.70;1.60;;;4.00;99.90;;;;;;5013752;28;20288;-68
2021/12/17 14:02:49;;;;;;;1.60;1.60;;;4.00;99.90;;;;;;5013646;28;20197;-68
2021/12/17 14:05:21;;;;;;;1.40;1.40;;;3.90;99.90;;;;;;5013391;28;20772;-68
2021/12/17 14:07:50;;;;;;;1.67;1.67;;;4.00;99.90;;;;;;5013889;28;20382;-68
2021/12/17 14:10:22;;;;;;;1.50;1.50;;;3.90;99.90;;;;;;5013393;28;20297;-68
2021/12/17 14:12:50;;;;;;;1.42;1.42;;;3.90;99.90;;;;;;5013574;28;20275;-68
2021/12/17 14:15:20;;;;;;;1.63;1.60;;;3.90;99.90;;;;;;5013560;28;20313;-68
2021/12/17 14:17:49;;;;;;;1.40;1.40;;;3.90;99.90;;;;;;5013619;28;20226;-68
2021/12/17 14:20:18;;;;;;;1.35;1.35;;;3.80;99.90;;;;;;5013125;28;20242;-70
2021/12/17 14:22:46;;;;;;;1.55;1.55;;;3.80;99.90;;;;;;5014831;28;20741;-68
2021/12/17 14:25:32;;;;;;;1.38;1.38;;;3.80;99.90;;;;;;5017154;28;20317;-68
2021/12/17 14:28:03;;;;;;;1.30;1.30;;;3.80;99.90;;;;;;5017257;28;20409;-68
2021/12/17 14:30:34;;;;;;;1.23;1.23;;;3.80;99.90;;;;;;5017307;28;20276;-68
2021/12/17 14:33:07;;;;;;;1.30;1.30;;;3.70;99.90;;;;;;5016767;28;20557;-68
2021/12/17 14:35:49;;;;;;;1.60;1.60;;;3.70;99.90;;;;;;5016965;28;20723;-68
2021/12/17 14:38:18;;;;;;;1.50;1.50;;;3.70;99.90;;;;;;5016644;28;20642;-66
2021/12/17 14:40:55;;;;;;;1.40;1.40;;;3.70;99.90;;;;;;5016969;28;20274;-68
2021/12/17 14:43:25;;;;;;;1.52;1.40;;;3.60;99.90;;;;;;5016683;28;20611;-66
2021/12/17 14:46:04;;;;;;;1.20;1.20;;;3.60;99.90;;;;;;5016897;28;20238;-66
2021/12/17 14:48:41;;;;;;;1.33;1.33;;;3.50;99.90;;;;;;5017115;28;20209;-66
2021/12/17 15:02:47;;;;;;;1.48;1.48;;;3.40;99.90;;;;;;5016828;28;20549;-66
2021/12/17 15:05:15;;;;;;;1.60;1.60;;;3.40;99.90;;;;;;5016536;28;20720;-67
2021/12/17 15:07:42;;;;;;;1.60;1.60;;;3.30;99.90;;;;;;5015951;28;20206;-66
2021/12/17 15:10:11;;;;;;;1.70;1.60;;;3.30;99.90;;;;;;5016396;28;20252;-66
2021/12/17 15:12:39;;;;;;;1.88;1.77;;;3.30;99.90;;;;;;5016810;28;20209;-66
2021/12/17 15:15:15;;;;;;;1.67;1.67;;;3.20;99.90;;;;;;5017095;28;20218;-66
2021/12/17 15:17:43;;;;;;;1.67;1.67;;;3.20;99.90;;;;;;5016696;28;20214;-66
2021/12/17 15:20:12;;;;;;;1.67;1.67;;;3.10;99.90;;;;;;5016479;28;20632;-66
2021/12/17 15:22:40;;;;;;;1.50;1.50;;;3.10;99.90;;;;;;5016504;28;20284;-66
2021/12/17 15:25:10;;;;;;;1.50;1.50;;;3.00;99.90;;;;;;5016355;28;20317;-66
2021/12/17 15:27:38;;;;;;;1.65;1.65;;;3.00;99.90;;;;;;5016090;28;20292;-66
2021/12/17 15:30:10;;;;;;;1.67;1.67;;;2.90;99.90;;;;;;5016570;28;20276;-65
2021/12/17 15:32:37;;;;;;;1.98;1.88;;;2.90;99.90;;;;;;5016612;28;20291;-65
2021/12/17 15:35:05;;;;;;;1.55;1.52;;;2.80;99.90;;;;;;5015568;28;20245;-66
2021/12/17 15:37:32;;;;;;;1.70;1.70;;;2.80;99.90;;;;;;5016544;28;20289;-66
2021/12/17 15:39:59;;;;;;;1.77;1.77;;;2.70;99.90;;;;;;5015834;28;20202;-66
2021/12/17 15:42:26;;;;;;;1.90;1.80;;;2.70;99.90;;;;;;5015677;28;20289;-65
2021/12/17 15:44:54;;;;;;;1.92;1.90;;;2.60;99.90;;;;;;5015567;28;20237;-66
2021/12/17 15:47:21;;;;;;;2.00;1.90;;;2.60;99.90;;;;;;5015508;28;20202;-66
2021/12/17 15:49:48;;;;;;;2.00;1.90;;;2.60;99.90;;;;;;5015323;28;20313;-66
2021/12/17 15:52:15;;;;;;;1.70;1.70;;;2.50;99.90;;;;;;5015064;28;20297;-66
2021/12/17 15:54:43;;;;;;;1.63;1.63;;;2.50;99.90;;;;;;5015076;28;20288;-66
2021/12/17 15:57:15;;;;;;;2.22;2.13;;;2.40;99.90;;;;;;5015384;28;20256;-66
2021/12/17 15:59:42;;;;;;;2.15;2.05;;;2.40;99.90;;;;;;5015035;28;20577;-65
2021/12/17 16:02:11;;;;;;;1.85;1.75;;;2.30;99.90;;;;;;5014975;28;20629;-66
2021/12/17 16:04:42;;;;;;;1.92;1.88;;;2.30;99.90;;;;;;5015049;28;20289;-67
2021/12/17 16:07:10;;;;;;;1.70;1.60;;;2.20;99.90;;;;;;5014866;28;20237;-65
2021/12/17 16:21:02;;;;;;;2.20;2.10;;;2.10;99.90;;;;;;5014763;28;20178;-67
2021/12/17 16:23:31;;;;;;;1.80;1.80;;;2.10;99.90;;;;;;5015057;28;20361;-67
2021/12/17 16:25:59;;;;;;;1.92;1.92;;;2.10;99.90;;;;;;5014466;28;20308;-67
2021/12/17 16:28:27;;;;;;;2.20;2.10;;;2.10;99.90;;;;;;5014673;28;20214;-67
2021/12/17 16:31:02;;;;;;;2.17;2.08;;;2.10;99.90;;;;;;5014806;28;20212;-68
2021/12/17 16:33:30;;;;;;;2.13;2.03;;;2.20;99.90;;;;;;5014868;28;20288;-67
2021/12/17 16:35:59;;;;;;;2.28;2.17;;;2.30;99.90;;;;;;5014406;28;20309;-67
2021/12/17 16:38:27;;;;;;;2.05;2.00;;;2.40;99.90;;;;;;5014965;28;20194;-68
2021/12/17 16:40:54;;;;;;;2.05;1.98;;;2.40;99.90;;;;;;5014601;28;20288;-68
2021/12/17 16:43:21;;;;;;;3.33;3.13;;;2.50;99.90;;;;;;5014941;28;20281;-68
2021/12/17 16:46:03;;;;;;;3.25;2.95;;;2.60;99.90;;;;;;5014557;28;20276;-68
2021/12/17 16:48:33;;;;;;;4.13;3.80;;;2.60;99.90;;;;;;5015615;28;20549;-68
2021/12/17 16:51:00;;;;;;;3.58;3.28;;;2.70;99.90;;;;;;5014695;28;20298;-67
2021/12/17 16:53:27;;;;;;;3.67;3.45;;;2.70;99.90;;;;;;5014198;28;20209;-68
2021/12/17 16:55:54;;;;;;;4.13;3.83;;;2.80;99.90;;;;;;5014002;28;20320;-67
2021/12/17 16:58:21;;;;;;;4.10;3.80;;;2.80;99.90;;;;;;5014480;28;20222;-67
2021/12/17 17:00:48;;;;;;;7.57;6.75;;;2.90;99.90;;;;;;5014415;28;20213;-68
2021/12/17 17:03:15;;;;;;;11.38;7.82;;;2.90;99.90;;;;;;5014268;28;20293;-67
2021/12/17 17:05:44;;;;;;;11.63;9.52;;;2.90;99.90;;;;;;5014170;28;20820;-68
2021/12/17 17:08:11;;;;;;;13.75;9.20;;;2.90;99.90;;;;;;5014251;28;20300;-66
2021/12/17 17:10:38;;;;;;;12.27;9.75;;;2.90;99.90;;;;;;5014372;28;20277;-68
2021/12/17 17:13:06;;;;;;;12.88;9.73;;;2.90;99.90;;;;;;5014063;28;20641;-68
2021/12/17 17:15:35;;;;;;;11.07;8.75;;;3.00;99.90;;;;;;5014477;28;20317;-68
2021/12/17 17:18:03;;;;;;;11.02;8.60;;;3.00;99.90;;;;;;5014432;28;20191;-68
2021/12/17 17:20:31;;;;;;;8.63;7.72;;;3.00;99.90;;;;;;5014190;28;20237;-67
2021/12/17 17:23:00;;;;;;;10.25;7.82;;;3.10;99.90;;;;;;5014285;28;20197;-68
2021/12/17 17:25:27;;;;;;;9.43;8.15;;;3.20;99.90;;;;;;5014053;28;20317;-67
2021/12/17 17:27:54;;;;;;;7.88;7.07;;;3.20;99.90;;;;;;5014087;28;20729;-67
2021/12/17 17:30:22;;;;;;;7.70;6.90;;;3.20;99.90;;;;;;5014112;28;20316;-68
2021/12/17 17:32:49;;;;;;;8.50;6.75;;;3.30;99.90;;;;;;5013843;28;20756;-69
2021/12/17 17:35:17;;;;;;;7.25;6.57;;;3.30;99.90;;;;;;5014240;28;20313;-69
2021/12/17 17:37:44;;;;;;;5.70;5.15;;;3.40;99.90;;;;;;5014307;28;20305;-70
2021/12/17 17:40:14;;;;;;;7.05;6.35;;;3.40;99.90;;;;;;5013909;28;20285;-70
2021/12/17 17:42:41;;;;;;;7.32;6.63;;;3.40;99.90;;;;;;5013950;28;20292;-70
2021/12/17 17:45:09;;;;;;;12.63;8.52;;;3.40;99.90;;;;;;5013467;28;20610;-70
2021/12/17 17:47:36;;;;;;;9.63;8.25;;;3.40;99.90;;;;;;5013515;28;20297;-70
2021/12/17 17:50:04;;;;;;;10.52;8.48;;;3.40;99.90;;;;;;5013718;28;20312;-70
2021/12/17 17:52:31;;;;;;;15.73;11.05;;;3.40;99.90;;;;;;5013705;28;20212;-70
2021/12/17 17:54:59;;;;;;;13.00;10.00;;;3.40;99.90;;;;;;5013625;28;20320;-69
2021/12/17 17:57:28;;;;;;;12.63;9.30;;;3.40;99.90;;;;;;5017430;28;20656;-69
2021/12/17 17:59:57;;;;;;;15.38;11.40;;;3.40;99.90;;;;;;5020596;28;20204;-67
2021/12/17 18:02:26;;;;;;;14.73;11.65;;;3.40;99.90;;;;;;5021265;28;20665;-67
2021/12/17 18:04:54;;;;;;;14.23;11.10;;;3.40;99.90;;;;;;5021689;28;20217;-69
2021/12/17 18:07:21;;;;;;;14.05;10.13;;;3.40;99.90;;;;;;5020828;28;20665;-69
2021/12/17 18:09:48;;;;;;;14.40;10.38;;;3.40;99.90;;;;;;5019970;28;20250;-69
2021/12/17 18:12:16;;;;;;;13.50;10.85;;;3.40;99.90;;;;;;5020187;28;20202;-69
2021/12/17 18:14:44;;;;;;;14.43;10.77;;;3.40;99.90;;;;;;5019881;28;20661;-69
2021/12/17 18:17:12;;;;;;;11.85;9.57;;;3.30;99.90;;;;;;5019507;28;20206;-70
2021/12/17 18:19:40;;;;;;;12.65;9.77;;;3.40;99.90;;;;;;5019674;28;20202;-68
2021/12/17 18:22:08;;;;;;;12.98;10.35;;;3.40;99.90;;;;;;5020148;28;20612;-69
2021/12/17 18:24:35;;;;;;;14.93;11.05;;;3.40;99.90;;;;;;5020094;28;20229;-69
2021/12/17 18:27:04;;;;;;;14.23;11.32;;;3.40;99.90;;;;;;5020712;28;20236;-69
2021/12/17 18:29:32;;;;;;;15.25;10.75;;;3.40;99.90;;;;;;5020787;28;20233;-69
2021/12/17 18:32:02;;;;;;;14.82;10.95;;;3.40;99.90;;;;;;5020837;28;20229;-72
2021/12/17 18:34:30;;;;;;;19.65;12.57;;;3.40;99.90;;;;;;5020864;28;20214;-72
2021/12/17 18:36:57;;;;;;;13.82;10.05;;;3.40;99.90;;;;;;5019339;28;20214;-71
2021/12/17 18:39:25;;;;;;;13.88;10.23;;;3.40;99.90;;;;;;5019920;28;20306;-72
2021/12/17 18:44:05;;;;;;;14.25;10.50;;;3.40;99.90;;;;;;5019531;28;20268;-72
2021/12/17 18:44:41;;;;;;;16.20;10.52;;;3.40;99.90;;;;;;5019334;28;20202;-72
2021/12/17 18:47:09;;;;;;;13.48;10.32;;;3.50;99.90;;;;;;5019981;28;20187;-68
2021/12/17 18:49:36;;;;;;;11.68;8.90;;;3.50;99.90;;;;;;5019889;28;20218;-68
2021/12/17 18:52:05;;;;;;;12.55;9.52;;;3.50;99.90;;;;;;5019266;28;20205;-68
2021/12/17 18:54:32;;;;;;;11.30;9.15;;;3.50;99.90;;;;;;5020246;28;20281;-69
2021/12/17 18:56:59;;;;;;;14.27;9.85;;;3.50;99.90;;;;;;5019356;28;20230;-68
2021/12/17 18:59:26;;;;;;;15.93;11.32;;;3.50;99.90;;;;;;5017520;28;20198;-68
2021/12/17 19:01:53;;;;;;;18.30;12.70;;;3.50;99.90;;;;;;5016429;28;20202;-69
2021/12/17 19:04:21;;;;;;;15.20;11.55;;;3.50;99.90;;;;;;5016596;28;20292;-70
2021/12/17 19:06:51;;;;;;;15.43;11.40;;;3.40;99.90;;;;;;5016043;28;20308;-68
2021/12/17 19:09:19;;;;;;;15.38;11.77;;;3.40;99.90;;;;;;5015792;28;20272;-69
2021/12/17 19:11:47;;;;;;;12.43;9.50;;;3.40;99.90;;;;;;5016374;28;20292;-68
2021/12/17 19:14:15;;;;;;;12.23;9.95;;;3.40;99.90;;;;;;5015965;28;20700;-68
2021/12/17 19:16:46;;;;;;;13.10;10.05;;;3.40;99.90;;;;;;5015844;28;20620;-69
2021/12/17 19:19:21;;;;;;;14.55;11.43;;;3.40;99.90;;;;;;5039546;23;20230;-70
2021/12/17 19:22:03;;;;;;;15.05;11.68;;;3.50;99.90;;;;;;5016529;28;20186;-69
2021/12/17 19:24:30;;;;;;;14.48;11.18;;;3.50;99.90;;;;;;5016674;28;20186;-70
2021/12/17 19:26:57;;;;;;;15.00;10.32;;;3.50;99.90;;;;;;5016056;28;20198;-70
2021/12/17 19:29:25;;;;;;;12.85;10.48;;;3.50;99.90;;;;;;5015927;28;20222;-70
2021/12/17 19:31:52;;;;;;;13.68;10.07;;;3.50;99.90;;;;;;5016187;28;20264;-70
2021/12/17 19:34:19;;;;;;;12.35;9.18;;;3.50;99.90;;;;;;5015824;28;20241;-70